createdAt,value
2017-02-15T00:00:42.161Z,46.33
2017-02-15T00:01:42.435Z,46.81
2017-02-15T00:02:42.821Z,46.42
2017-02-15T00:03:42.535Z,46.52
2017-02-15T00:04:41.861Z,46.71
2017-02-15T00:05:42.289Z,46.71
2017-02-15T00:06:42.606Z,46.71
2017-02-15T00:07:42.549Z,46.52
2017-02-15T00:08:42.602Z,46.52
2017-02-15T00:09:42.592Z,46.71
2017-02-15T00:10:42.422Z,46.33
2017-02-15T00:11:42.297Z,46.71
2017-02-15T00:12:42.486Z,46.52
2017-02-15T00:13:42.114Z,46.62
2017-02-15T00:14:42.127Z,46.71
2017-02-15T00:15:43.058Z,46.62
2017-02-15T00:16:42.461Z,46.71
2017-02-15T00:17:43.215Z,46.62
2017-02-15T00:18:42.651Z,46.71
2017-02-15T00:19:42.667Z,46.33
2017-02-15T00:20:42.704Z,46.33
2017-02-15T00:21:43.146Z,46.52
2017-02-15T00:22:42.771Z,46.62
2017-02-15T00:23:42.372Z,46.71
2017-02-15T00:24:42.433Z,46.62
2017-02-15T00:25:42.913Z,46.62
2017-02-15T00:26:43.033Z,46.33
2017-02-15T00:27:42.466Z,46.33
2017-02-15T00:28:42.514Z,46.33
2017-02-15T00:29:43.111Z,46.69
2017-02-15T00:30:42.565Z,46.71
2017-02-15T00:31:42.583Z,46.62
2017-02-15T00:32:43.624Z,46.31
2017-02-15T00:33:43.612Z,46.59
2017-02-15T00:34:43.617Z,46.5
2017-02-15T00:35:43.689Z,46.81
2017-02-15T00:36:43.328Z,46.69
2017-02-15T00:37:43.153Z,46.31
2017-02-15T00:38:42.765Z,46.31
2017-02-15T00:39:43.343Z,46.31
2017-02-15T00:40:43.238Z,46.21
2017-02-15T00:41:42.852Z,46.21
2017-02-15T00:42:43.248Z,46.11
2017-02-15T00:43:42.898Z,46.21
2017-02-15T00:44:43.351Z,46.5
2017-02-15T00:45:43.387Z,46.01
2017-02-15T00:46:42.980Z,46.4
2017-02-15T00:47:43.400Z,46.31
2017-02-15T00:48:43.995Z,46.21
2017-02-15T00:49:43.428Z,46.31
2017-02-15T00:50:43.674Z,46.21
2017-02-15T00:51:43.121Z,46.21
2017-02-15T00:52:43.143Z,46.21
2017-02-15T00:53:43.202Z,46.11
2017-02-15T00:54:43.592Z,46.31
2017-02-15T00:55:43.623Z,45.92
2017-02-15T00:56:43.662Z,46.01
2017-02-15T00:57:43.884Z,45.73
2017-02-15T00:58:44.302Z,46.01
2017-02-15T00:59:43.729Z,45.83
2017-02-15T01:00:44.340Z,45.73
2017-02-15T01:01:44.366Z,45.83
2017-02-15T01:02:43.465Z,45.92
2017-02-15T01:03:44.002Z,46.11
2017-02-15T01:04:43.858Z,46.11
2017-02-15T01:05:43.898Z,46.01
2017-02-15T01:06:43.919Z,46.01
2017-02-15T01:07:43.540Z,45.63
2017-02-15T01:08:43.841Z,45.44
2017-02-15T01:09:43.995Z,45.73
2017-02-15T01:10:44.209Z,45.44
2017-02-15T01:11:43.681Z,45.63
2017-02-15T01:12:44.088Z,45.83
2017-02-15T01:13:44.048Z,45.73
2017-02-15T01:14:43.754Z,45.73
2017-02-15T01:15:44.149Z,45.73
2017-02-15T01:16:44.186Z,45.83
2017-02-15T01:17:43.807Z,45.83
2017-02-15T01:18:44.304Z,45.53
2017-02-15T01:19:44.909Z,45.05
2017-02-15T01:20:44.286Z,45.05
2017-02-15T01:21:44.411Z,45.05
2017-02-15T01:22:44.390Z,45.34
2017-02-15T01:23:44.354Z,45.25
2017-02-15T01:24:44.647Z,45.25
2017-02-15T01:25:44.645Z,45.25
2017-02-15T01:26:44.874Z,45.25
2017-02-15T01:27:44.382Z,45.25
2017-02-15T01:28:44.114Z,45.25
2017-02-15T01:29:45.090Z,45.25
2017-02-15T01:30:44.149Z,45.15
2017-02-15T01:31:44.162Z,45.25
2017-02-15T01:32:45.043Z,44.93
2017-02-15T01:33:45.240Z,45.25
2017-02-15T01:34:44.987Z,45.22
2017-02-15T01:35:44.699Z,45.32
2017-02-15T01:36:44.308Z,45.32
2017-02-15T01:37:45.601Z,45.44
2017-02-15T01:38:44.906Z,45.42
2017-02-15T01:39:45.342Z,45.32
2017-02-15T01:40:44.409Z,45.22
2017-02-15T01:41:44.479Z,45.22
2017-02-15T01:42:45.590Z,45.22
2017-02-15T01:43:44.897Z,45.22
2017-02-15T01:44:44.936Z,45.05
2017-02-15T01:45:44.535Z,45.13
2017-02-15T01:46:45.501Z,44.96
2017-02-15T01:47:44.867Z,45.03
2017-02-15T01:48:45.296Z,45.22
2017-02-15T01:49:45.676Z,45.13
2017-02-15T01:50:45.076Z,45.13
2017-02-15T01:51:45.657Z,45.03
2017-02-15T01:52:45.524Z,45.22
2017-02-15T01:53:45.734Z,45.13
2017-02-15T01:54:45.202Z,45.13
2017-02-15T01:55:45.209Z,44.74
2017-02-15T01:56:45.415Z,45.13
2017-02-15T01:57:45.120Z,44.84
2017-02-15T01:58:45.730Z,44.84
2017-02-15T01:59:45.321Z,45.13
2017-02-15T02:00:44.933Z,44.93
2017-02-15T02:01:45.364Z,44.93
2017-02-15T02:02:45.637Z,44.65
2017-02-15T02:03:45.882Z,44.74
2017-02-15T02:04:45.646Z,44.74
2017-02-15T02:05:45.636Z,44.45
2017-02-15T02:06:46.101Z,44.55
2017-02-15T02:07:45.780Z,44.74
2017-02-15T02:08:45.145Z,44.45
2017-02-15T02:09:46.156Z,44.45
2017-02-15T02:10:45.199Z,44.45
2017-02-15T02:11:46.177Z,44.55
2017-02-15T02:12:45.965Z,44.45
2017-02-15T02:13:45.272Z,44.65
2017-02-15T02:14:45.699Z,44.65
2017-02-15T02:15:45.342Z,44.55
2017-02-15T02:16:46.358Z,44.65
2017-02-15T02:17:46.176Z,44.74
2017-02-15T02:18:45.416Z,44.55
2017-02-15T02:19:45.440Z,44.84
2017-02-15T02:20:45.862Z,44.84
2017-02-15T02:21:46.449Z,44.55
2017-02-15T02:22:46.120Z,44.45
2017-02-15T02:23:46.441Z,44.55
2017-02-15T02:24:45.971Z,44.45
2017-02-15T02:25:45.996Z,44.45
2017-02-15T02:26:46.279Z,43.97
2017-02-15T02:27:46.197Z,44.07
2017-02-15T02:28:46.203Z,44.26
2017-02-15T02:29:46.100Z,44.35
2017-02-15T02:30:46.121Z,44.26
2017-02-15T02:31:45.818Z,44.17
2017-02-15T02:32:46.433Z,44.26
2017-02-15T02:33:46.373Z,44.26
2017-02-15T02:34:46.356Z,44.26
2017-02-15T02:35:46.248Z,44.26
2017-02-15T02:36:45.870Z,44.26
2017-02-15T02:37:46.897Z,44.07
2017-02-15T02:38:46.527Z,44.07
2017-02-15T02:39:46.357Z,44.26
2017-02-15T02:40:46.581Z,44.45
2017-02-15T02:41:46.845Z,44.26
2017-02-15T02:42:46.595Z,44.24
2017-02-15T02:43:46.066Z,44.24
2017-02-15T02:44:46.496Z,44.35
2017-02-15T02:45:46.533Z,44.34
2017-02-15T02:46:47.159Z,44.34
2017-02-15T02:47:46.573Z,44.26
2017-02-15T02:48:46.631Z,44.34
2017-02-15T02:49:47.242Z,44.05
2017-02-15T02:50:46.238Z,43.85
2017-02-15T02:51:46.826Z,44.05
2017-02-15T02:52:46.832Z,43.85
2017-02-15T02:53:47.273Z,43.85
2017-02-15T02:54:46.359Z,43.85
2017-02-15T02:55:46.376Z,44.14
2017-02-15T02:56:47.106Z,43.57
2017-02-15T02:57:46.420Z,43.76
2017-02-15T02:58:46.854Z,43.66
2017-02-15T02:59:46.939Z,43.76
2017-02-15T03:00:47.340Z,43.76
2017-02-15T03:01:47.216Z,43.85
2017-02-15T03:02:46.580Z,43.88
2017-02-15T03:03:46.989Z,44.05
2017-02-15T03:04:46.612Z,43.66
2017-02-15T03:05:47.337Z,43.76
2017-02-15T03:06:47.219Z,43.66
2017-02-15T03:07:47.088Z,43.57
2017-02-15T03:08:47.124Z,43.47
2017-02-15T03:09:47.153Z,43.47
2017-02-15T03:10:47.363Z,43.57
2017-02-15T03:11:47.789Z,43.66
2017-02-15T03:12:47.606Z,43.47
2017-02-15T03:13:47.251Z,43.66
2017-02-15T03:14:47.272Z,43.66
2017-02-15T03:15:47.287Z,43.76
2017-02-15T03:16:47.610Z,43.66
2017-02-15T03:17:47.757Z,43.18
2017-02-15T03:18:46.977Z,43.37
2017-02-15T03:19:47.008Z,43.28
2017-02-15T03:20:47.426Z,43.18
2017-02-15T03:21:47.919Z,43.08
2017-02-15T03:22:47.524Z,43.28
2017-02-15T03:23:47.511Z,43.08
2017-02-15T03:24:48.115Z,43.08
2017-02-15T03:25:47.557Z,43.18
2017-02-15T03:26:47.595Z,43.18
2017-02-15T03:27:47.573Z,43.08
2017-02-15T03:28:47.771Z,43.08
2017-02-15T03:29:47.663Z,42.99
2017-02-15T03:30:47.288Z,43.08
2017-02-15T03:31:47.705Z,43.08
2017-02-15T03:32:48.004Z,43.18
2017-02-15T03:33:47.730Z,42.89
2017-02-15T03:34:48.306Z,43.28
2017-02-15T03:35:47.411Z,43.18
2017-02-15T03:36:47.649Z,43.18
2017-02-15T03:37:47.861Z,43.18
2017-02-15T03:38:48.147Z,43.08
2017-02-15T03:39:47.919Z,42.89
2017-02-15T03:40:48.515Z,42.89
2017-02-15T03:41:48.490Z,42.99
2017-02-15T03:42:47.891Z,42.99
2017-02-15T03:43:48.279Z,42.99
2017-02-15T03:44:47.651Z,42.89
2017-02-15T03:45:48.080Z,42.99
2017-02-15T03:46:47.996Z,42.99
2017-02-15T03:47:48.449Z,42.89
2017-02-15T03:48:48.396Z,42.99
2017-02-15T03:49:48.182Z,42.89
2017-02-15T03:50:48.756Z,42.5
2017-02-15T03:51:47.833Z,43.37
2017-02-15T03:52:47.853Z,43.18
2017-02-15T03:53:48.536Z,42.7
2017-02-15T03:54:48.359Z,43.08
2017-02-15T03:55:48.154Z,42.6
2017-02-15T03:56:48.365Z,42.6
2017-02-15T03:57:48.736Z,42.5
2017-02-15T03:58:49.101Z,43.47
2017-02-15T03:59:48.446Z,42.89
2017-02-15T04:00:48.459Z,42.8
2017-02-15T04:01:48.503Z,43.37
2017-02-15T04:02:48.834Z,43.37
2017-02-15T04:03:49.215Z,42.6
2017-02-15T04:04:49.137Z,43.47
2017-02-15T04:05:48.602Z,43.08
2017-02-15T04:06:48.233Z,42.89
2017-02-15T04:07:48.921Z,42.89
2017-02-15T04:08:48.690Z,42.99
2017-02-15T04:09:48.299Z,43.08
2017-02-15T04:10:48.754Z,42.8
2017-02-15T04:11:49.282Z,43.08
2017-02-15T04:12:48.961Z,42.8
2017-02-15T04:13:48.422Z,42.89
2017-02-15T04:14:48.841Z,42.89
2017-02-15T04:15:49.316Z,42.8
2017-02-15T04:16:48.935Z,42.7
2017-02-15T04:17:48.919Z,42.87
2017-02-15T04:18:48.930Z,42.8
2017-02-15T04:19:48.962Z,42.99
2017-02-15T04:20:48.596Z,42.8
2017-02-15T04:21:49.194Z,42.8
2017-02-15T04:22:49.531Z,42.99
2017-02-15T04:23:49.065Z,42.89
2017-02-15T04:24:49.383Z,42.89
2017-02-15T04:25:49.123Z,42.89
2017-02-15T04:26:49.132Z,42.99
2017-02-15T04:27:49.408Z,42.89
2017-02-15T04:28:49.212Z,42.89
2017-02-15T04:29:49.717Z,42.89
2017-02-15T04:30:49.683Z,42.89
2017-02-15T04:31:49.790Z,42.8
2017-02-15T04:32:49.307Z,42.89
2017-02-15T04:33:49.327Z,43.08
2017-02-15T04:34:49.354Z,43.18
2017-02-15T04:35:49.805Z,43.08
2017-02-15T04:36:49.531Z,43.08
2017-02-15T04:37:49.417Z,43.18
2017-02-15T04:38:49.914Z,42.99
2017-02-15T04:39:50.013Z,43.07
2017-02-15T04:40:50.057Z,43.28
2017-02-15T04:41:49.713Z,43.16
2017-02-15T04:42:49.746Z,42.58
2017-02-15T04:43:49.532Z,42.58
2017-02-15T04:44:50.186Z,43.16
2017-02-15T04:45:49.234Z,42.49
2017-02-15T04:46:50.217Z,42.41
2017-02-15T04:47:50.131Z,42.39
2017-02-15T04:48:49.969Z,42.41
2017-02-15T04:49:49.736Z,42.7
2017-02-15T04:50:49.369Z,42.58
2017-02-15T04:51:49.731Z,42.6
2017-02-15T04:52:49.971Z,42.6
2017-02-15T04:53:49.460Z,42.68
2017-02-15T04:54:49.721Z,42.58
2017-02-15T04:55:50.220Z,42.39
2017-02-15T04:56:49.917Z,42.39
2017-02-15T04:57:49.944Z,42.39
2017-02-15T04:58:49.592Z,42.49
2017-02-15T04:59:50.355Z,42.39
2017-02-15T05:00:50.033Z,42.58
2017-02-15T05:01:50.326Z,42.3
2017-02-15T05:02:50.080Z,42.39
2017-02-15T05:03:50.095Z,42.49
2017-02-15T05:04:50.390Z,42.49
2017-02-15T05:05:50.327Z,42.2
2017-02-15T05:06:50.286Z,42.1
2017-02-15T05:07:50.208Z,42
2017-02-15T05:08:50.216Z,42.1
2017-02-15T05:09:50.978Z,42.2
2017-02-15T05:10:49.880Z,41.82
2017-02-15T05:11:50.319Z,42.2
2017-02-15T05:12:50.327Z,42
2017-02-15T05:13:50.495Z,42.3
2017-02-15T05:14:50.789Z,42.39
2017-02-15T05:15:50.725Z,42.39
2017-02-15T05:16:50.433Z,42.39
2017-02-15T05:17:50.459Z,42.3
2017-02-15T05:18:50.729Z,42.39
2017-02-15T05:19:50.771Z,42
2017-02-15T05:20:50.543Z,42.1
2017-02-15T05:21:50.705Z,42.12
2017-02-15T05:22:50.190Z,42.22
2017-02-15T05:23:50.976Z,41.93
2017-02-15T05:24:51.217Z,41.74
2017-02-15T05:25:50.261Z,41.64
2017-02-15T05:26:50.289Z,42.03
2017-02-15T05:27:51.025Z,42.03
2017-02-15T05:28:51.180Z,41.93
2017-02-15T05:29:50.379Z,41.64
2017-02-15T05:30:50.813Z,41.64
2017-02-15T05:31:50.831Z,41.45
2017-02-15T05:32:51.104Z,41.55
2017-02-15T05:33:51.354Z,41.45
2017-02-15T05:34:51.347Z,40.97
2017-02-15T05:35:50.928Z,41.35
2017-02-15T05:36:50.960Z,41.28
2017-02-15T05:37:50.589Z,41.18
2017-02-15T05:38:50.738Z,41.35
2017-02-15T05:39:51.299Z,41.18
2017-02-15T05:40:51.058Z,41.18
2017-02-15T05:41:50.680Z,41.18
2017-02-15T05:42:51.106Z,41.18
2017-02-15T05:43:51.339Z,41.18
2017-02-15T05:44:51.205Z,41.47
2017-02-15T05:45:51.269Z,41.28
2017-02-15T05:46:51.210Z,41.38
2017-02-15T05:47:50.832Z,41.47
2017-02-15T05:48:51.269Z,41.28
2017-02-15T05:49:51.264Z,40.89
2017-02-15T05:50:51.691Z,40.89
2017-02-15T05:51:51.341Z,40.89
2017-02-15T05:52:51.007Z,40.8
2017-02-15T05:53:51.383Z,40.51
2017-02-15T05:54:51.054Z,40.8
2017-02-15T05:55:51.739Z,40.99
2017-02-15T05:56:51.726Z,40.99
2017-02-15T05:57:51.104Z,40.8
2017-02-15T05:58:51.120Z,41.01
2017-02-15T05:59:51.154Z,40.63
2017-02-15T06:00:51.528Z,40.72
2017-02-15T06:01:52.008Z,40.72
2017-02-15T06:02:51.632Z,40.24
2017-02-15T06:03:51.649Z,40.24
2017-02-15T06:04:51.669Z,40.34
2017-02-15T06:05:52.212Z,40.14
2017-02-15T06:06:51.493Z,40.63
2017-02-15T06:07:51.782Z,40.72
2017-02-15T06:08:51.774Z,40.72
2017-02-15T06:09:51.413Z,40.53
2017-02-15T06:10:52.477Z,40.43
2017-02-15T06:11:51.560Z,40.53
2017-02-15T06:12:51.970Z,40.14
2017-02-15T06:13:52.249Z,40.14
2017-02-15T06:14:52.399Z,40.14
2017-02-15T06:15:52.457Z,39.95
2017-02-15T06:16:51.994Z,40.14
2017-02-15T06:17:52.089Z,40.14
2017-02-15T06:18:52.051Z,40.14
2017-02-15T06:19:52.115Z,40.14
2017-02-15T06:20:52.423Z,40.55
2017-02-15T06:21:52.127Z,40.16
2017-02-15T06:22:51.750Z,40.64
2017-02-15T06:23:52.166Z,40.45
2017-02-15T06:24:52.595Z,40.84
2017-02-15T06:25:52.307Z,40.55
2017-02-15T06:26:52.352Z,40.64
2017-02-15T06:27:52.279Z,40.84
2017-02-15T06:28:52.316Z,41.51
2017-02-15T06:29:51.933Z,40.94
2017-02-15T06:30:52.627Z,40.94
2017-02-15T06:31:52.390Z,40.84
2017-02-15T06:32:52.405Z,40.94
2017-02-15T06:33:52.037Z,41.03
2017-02-15T06:34:52.061Z,41.03
2017-02-15T06:35:52.341Z,40.84
2017-02-15T06:36:52.524Z,40.84
2017-02-15T06:37:52.139Z,40.94
2017-02-15T06:38:52.176Z,41.41
2017-02-15T06:39:52.192Z,40.74
2017-02-15T06:40:52.469Z,41.32
2017-02-15T06:41:52.665Z,41.41
2017-02-15T06:42:52.678Z,41.22
2017-02-15T06:43:52.720Z,41.03
2017-02-15T06:44:52.738Z,41.41
2017-02-15T06:45:53.021Z,41.89
2017-02-15T06:46:52.369Z,41.89
2017-02-15T06:47:52.415Z,42.09
2017-02-15T06:48:52.419Z,42.09
2017-02-15T06:49:52.452Z,42.09
2017-02-15T06:50:53.129Z,42.19
2017-02-15T06:51:52.502Z,41.71
2017-02-15T06:52:52.538Z,41.71
2017-02-15T06:53:52.968Z,41.89
2017-02-15T06:54:52.974Z,41.8
2017-02-15T06:55:53.265Z,41.71
2017-02-15T06:56:52.639Z,42.09
2017-02-15T06:57:52.677Z,41.89
2017-02-15T06:58:53.100Z,42.19
2017-02-15T06:59:53.119Z,42.09
2017-02-15T07:00:52.751Z,41.89
2017-02-15T07:01:53.185Z,41.89
2017-02-15T07:02:53.201Z,41.8
2017-02-15T07:03:52.838Z,41.41
2017-02-15T07:04:52.856Z,41.41
2017-02-15T07:05:53.280Z,41.51
2017-02-15T07:06:53.302Z,41.41
2017-02-15T07:07:52.934Z,41.22
2017-02-15T07:08:52.947Z,41.41
2017-02-15T07:09:52.984Z,41.41
2017-02-15T07:10:53.012Z,41.32
2017-02-15T07:11:53.037Z,40.94
2017-02-15T07:12:53.470Z,41.03
2017-02-15T07:13:53.499Z,41.22
2017-02-15T07:14:53.532Z,41.41
2017-02-15T07:15:53.543Z,41.22
2017-02-15T07:16:53.168Z,41.41
2017-02-15T07:17:53.191Z,41.03
2017-02-15T07:18:53.266Z,41.01
2017-02-15T07:19:53.246Z,40.72
2017-02-15T07:20:53.272Z,40.84
2017-02-15T07:21:53.697Z,40.84
2017-02-15T07:22:53.328Z,40.81
2017-02-15T07:23:53.362Z,40.84
2017-02-15T07:24:53.775Z,41.03
2017-02-15T07:25:53.433Z,40.64
2017-02-15T07:26:53.832Z,40.84
2017-02-15T07:27:53.854Z,40.55
2017-02-15T07:28:53.878Z,40.74
2017-02-15T07:29:53.918Z,40.74
2017-02-15T07:30:53.555Z,40.07
2017-02-15T07:31:53.977Z,40.36
2017-02-15T07:32:53.585Z,40.16
2017-02-15T07:33:54.013Z,39.97
2017-02-15T07:34:53.645Z,40.26
2017-02-15T07:35:54.063Z,39.59
2017-02-15T07:36:53.945Z,39.78
2017-02-15T07:37:53.715Z,39.68
2017-02-15T07:38:54.141Z,39.78
2017-02-15T07:39:53.767Z,39.97
2017-02-15T07:40:53.811Z,40.07
2017-02-15T07:41:54.481Z,40.16
2017-02-15T07:42:54.256Z,40.16
2017-02-15T07:43:54.289Z,39.97
2017-02-15T07:44:54.306Z,39.59
2017-02-15T07:45:54.342Z,39.49
2017-02-15T07:46:54.212Z,39.29
2017-02-15T07:47:54.389Z,39.29
2017-02-15T07:48:54.017Z,39.2
2017-02-15T07:49:54.441Z,39.59
2017-02-15T07:50:54.475Z,39.49
2017-02-15T07:51:55.846Z,39.49
2017-02-15T07:52:54.126Z,39.2
2017-02-15T07:53:54.172Z,39.2
2017-02-15T07:54:54.585Z,39.97
2017-02-15T07:55:54.210Z,39.2
2017-02-15T07:56:54.215Z,39.29
2017-02-15T07:57:54.660Z,39.68
2017-02-15T07:58:54.685Z,39.49
2017-02-15T07:59:54.697Z,39.29
2017-02-15T08:00:54.750Z,39.39
2017-02-15T08:01:54.762Z,38.91
2017-02-15T08:02:54.371Z,39.01
2017-02-15T08:03:54.812Z,38.62
2017-02-15T08:04:54.840Z,38.62
2017-02-15T08:05:54.856Z,39.01
2017-02-15T08:06:54.885Z,38.72
2017-02-15T08:07:54.514Z,38.81
2017-02-15T08:08:54.934Z,38.72
2017-02-15T08:09:54.979Z,38.53
2017-02-15T08:10:55.005Z,39.01
2017-02-15T08:11:55.016Z,38.53
2017-02-15T08:12:55.049Z,39.29
2017-02-15T08:13:55.078Z,38.91
2017-02-15T08:14:54.702Z,38.91
2017-02-15T08:15:54.721Z,38.33
2017-02-15T08:16:55.145Z,38.62
2017-02-15T08:17:55.194Z,38.81
2017-02-15T08:18:54.802Z,38.91
2017-02-15T08:19:55.232Z,38.81
2017-02-15T08:20:54.864Z,38.62
2017-02-15T08:21:55.309Z,38.91
2017-02-15T08:22:55.318Z,38.72
2017-02-15T08:23:55.339Z,38.43
2017-02-15T08:24:55.367Z,38.43
2017-02-15T08:25:55.385Z,38.14
2017-02-15T08:26:55.412Z,37.66
2017-02-15T08:27:55.054Z,37.56
2017-02-15T08:28:55.465Z,37.66
2017-02-15T08:29:55.111Z,37.56
2017-02-15T08:30:55.528Z,37.66
2017-02-15T08:31:55.147Z,37.66
2017-02-15T08:32:55.581Z,37.85
2017-02-15T08:33:55.606Z,37.66
2017-02-15T08:34:55.219Z,37.29
2017-02-15T08:35:55.662Z,36.71
2017-02-15T08:36:55.276Z,36.15
2017-02-15T08:37:55.717Z,35.86
2017-02-15T08:38:55.733Z,35.88
2017-02-15T08:39:55.358Z,35.21
2017-02-15T08:40:55.398Z,34.94
2017-02-15T08:41:55.815Z,35.03
2017-02-15T08:42:55.437Z,34.55
2017-02-15T08:43:55.862Z,34.18
2017-02-15T08:44:55.897Z,34.38
2017-02-15T08:45:55.920Z,33.98
2017-02-15T08:46:55.555Z,34.08
2017-02-15T08:47:55.828Z,33.72
2017-02-15T08:48:56.011Z,33.62
2017-02-15T08:49:56.030Z,33.62
2017-02-15T08:50:56.066Z,33.62
2017-02-15T08:51:56.107Z,33.72
2017-02-15T08:52:56.367Z,34
2017-02-15T08:53:55.736Z,34.28
2017-02-15T08:54:55.773Z,34.18
2017-02-15T08:55:55.791Z,35.24
2017-02-15T08:56:55.822Z,34.64
2017-02-15T08:57:56.507Z,35.13
2017-02-15T08:58:56.296Z,35.13
2017-02-15T08:59:55.903Z,35.42
2017-02-15T09:00:55.929Z,35.3
2017-02-15T09:01:56.358Z,35.98
2017-02-15T09:02:56.244Z,35.78
2017-02-15T09:03:56.017Z,35.78
2017-02-15T09:04:56.452Z,35.88
2017-02-15T09:05:56.071Z,35.88
2017-02-15T09:06:56.099Z,36.17
2017-02-15T09:07:56.782Z,36.06
2017-02-15T09:08:56.143Z,36.36
2017-02-15T09:09:56.597Z,36.25
2017-02-15T09:10:56.902Z,36.25
2017-02-15T09:11:56.228Z,36.54
2017-02-15T09:12:56.515Z,36.73
2017-02-15T09:13:56.275Z,36.54
2017-02-15T09:14:56.772Z,36.63
2017-02-15T09:15:57.093Z,36.35
2017-02-15T09:16:56.599Z,36.83
2017-02-15T09:17:57.042Z,36.63
2017-02-15T09:18:56.924Z,36.63
2017-02-15T09:19:56.432Z,36.73
2017-02-15T09:20:56.472Z,36.73
2017-02-15T09:21:57.382Z,37.02
2017-02-15T09:22:56.771Z,37.12
2017-02-15T09:23:56.551Z,37.21
2017-02-15T09:24:56.574Z,37.5
2017-02-15T09:25:56.977Z,37.21
2017-02-15T09:26:56.628Z,37.31
2017-02-15T09:27:57.522Z,37.12
2017-02-15T09:28:57.000Z,36.63
2017-02-15T09:29:57.095Z,37.31
2017-02-15T09:30:57.184Z,37.21
2017-02-15T09:31:56.761Z,37.21
2017-02-15T09:32:57.457Z,37.12
2017-02-15T09:33:57.233Z,37.31
2017-02-15T09:34:57.795Z,37.12
2017-02-15T09:35:57.268Z,37.02
2017-02-15T09:36:57.823Z,37.41
2017-02-15T09:37:57.729Z,37.12
2017-02-15T09:38:56.947Z,37.6
2017-02-15T09:39:56.976Z,37.12
2017-02-15T09:40:57.033Z,37.12
2017-02-15T09:41:57.028Z,37.02
2017-02-15T09:42:57.924Z,37.6
2017-02-15T09:43:57.600Z,37.6
2017-02-15T09:44:57.530Z,37.5
2017-02-15T09:45:57.133Z,37.12
2017-02-15T09:46:57.614Z,37.41
2017-02-15T09:47:58.217Z,37.02
2017-02-15T09:48:57.753Z,37.02
2017-02-15T09:49:57.242Z,37.21
2017-02-15T09:50:57.649Z,37.21
2017-02-15T09:51:57.298Z,37.21
2017-02-15T09:52:57.937Z,37.31
2017-02-15T09:53:57.914Z,37.04
2017-02-15T09:54:58.002Z,37.31
2017-02-15T09:55:57.810Z,37.02
2017-02-15T09:56:57.438Z,36.63
2017-02-15T09:57:57.759Z,36.85
2017-02-15T09:58:57.480Z,36.55
2017-02-15T09:59:57.900Z,36.75
2017-02-15T10:00:58.062Z,36.75
2017-02-15T10:01:57.964Z,36.75
2017-02-15T10:02:57.992Z,36.85
2017-02-15T10:03:58.022Z,36.75
2017-02-15T10:04:58.085Z,36.65
2017-02-15T10:05:58.205Z,36.36
2017-02-15T10:06:57.920Z,36.65
2017-02-15T10:07:58.574Z,36.65
2017-02-15T10:08:58.490Z,36.75
2017-02-15T10:09:57.779Z,36.65
2017-02-15T10:10:58.213Z,36.85
2017-02-15T10:11:58.743Z,36.75
2017-02-15T10:12:58.775Z,36.55
2017-02-15T10:13:58.333Z,36.75
2017-02-15T10:14:58.322Z,36.85
2017-02-15T10:15:57.945Z,36.65
2017-02-15T10:16:58.366Z,36.75
2017-02-15T10:17:58.350Z,36.57
2017-02-15T10:18:58.748Z,36.57
2017-02-15T10:19:58.982Z,36.57
2017-02-15T10:20:58.489Z,36.65
2017-02-15T10:21:58.501Z,36.67
2017-02-15T10:22:58.815Z,36.87
2017-02-15T10:23:58.890Z,36.67
2017-02-15T10:24:58.200Z,36.57
2017-02-15T10:25:58.215Z,36.77
2017-02-15T10:26:58.640Z,36.67
2017-02-15T10:27:58.677Z,36.77
2017-02-15T10:28:58.720Z,36.67
2017-02-15T10:29:59.061Z,36.87
2017-02-15T10:30:58.818Z,36.87
2017-02-15T10:31:58.795Z,37.06
2017-02-15T10:32:58.807Z,37.25
2017-02-15T10:33:58.728Z,37.06
2017-02-15T10:34:58.862Z,37.06
2017-02-15T10:35:58.888Z,37.15
2017-02-15T10:36:59.024Z,37.63
2017-02-15T10:37:58.945Z,37.54
2017-02-15T10:38:59.137Z,37.73
2017-02-15T10:39:58.992Z,37.45
2017-02-15T10:40:58.727Z,37.54
2017-02-15T10:41:59.067Z,37.45
2017-02-15T10:42:59.084Z,37.45
2017-02-15T10:43:59.107Z,37.35
2017-02-15T10:44:58.734Z,37.15
2017-02-15T10:45:59.465Z,37.25
2017-02-15T10:46:59.196Z,37.35
2017-02-15T10:47:59.447Z,37.25
2017-02-15T10:48:59.721Z,37.35
2017-02-15T10:49:59.579Z,37.35
2017-02-15T10:50:59.288Z,37.25
2017-02-15T10:51:59.331Z,37.45
2017-02-15T10:52:58.955Z,37.35
2017-02-15T10:53:59.246Z,37.25
2017-02-15T10:54:59.410Z,37.25
2017-02-15T10:55:59.735Z,37.63
2017-02-15T10:56:59.474Z,37.54
2017-02-15T10:57:59.184Z,37.54
2017-02-15T10:58:59.375Z,37.25
2017-02-15T10:59:59.669Z,37.35
2017-02-15T11:00:59.643Z,37.63
2017-02-15T11:01:59.599Z,37.45
2017-02-15T11:02:59.637Z,37.45
2017-02-15T11:04:00.253Z,37.15
2017-02-15T11:04:59.923Z,37.15
2017-02-15T11:05:59.451Z,37.54
2017-02-15T11:06:59.341Z,37.45
2017-02-15T11:07:59.375Z,37.54
2017-02-15T11:08:59.984Z,37.15
2017-02-15T11:09:59.415Z,37.25
2017-02-15T11:10:59.855Z,36.96
2017-02-15T11:11:59.885Z,37.35
2017-02-15T11:12:59.852Z,36.96
2017-02-15T11:13:59.819Z,37.25
2017-02-15T11:15:00.136Z,37.15
2017-02-15T11:16:00.102Z,37.35
2017-02-15T11:17:00.316Z,37.06
2017-02-15T11:17:59.656Z,37.25
2017-02-15T11:19:00.073Z,37.06
2017-02-15T11:20:00.105Z,37.06
2017-02-15T11:20:59.716Z,36.57
2017-02-15T11:22:00.164Z,36.87
2017-02-15T11:22:59.788Z,36.69
2017-02-15T11:24:00.715Z,36.48
2017-02-15T11:25:00.442Z,36.69
2017-02-15T11:26:00.271Z,36.59
2017-02-15T11:27:00.298Z,36.67
2017-02-15T11:28:00.804Z,36.5
2017-02-15T11:29:00.361Z,36.59
2017-02-15T11:29:59.966Z,36.5
2017-02-15T11:31:00.398Z,36.4
2017-02-15T11:32:00.906Z,36.4
2017-02-15T11:33:00.074Z,36.5
2017-02-15T11:34:00.089Z,36.4
2017-02-15T11:35:00.518Z,36.3
2017-02-15T11:36:00.642Z,36.11
2017-02-15T11:37:00.179Z,36.5
2017-02-15T11:38:01.162Z,36.21
2017-02-15T11:39:00.501Z,36.4
2017-02-15T11:40:00.677Z,35.94
2017-02-15T11:41:00.322Z,35.94
2017-02-15T11:42:00.893Z,36.13
2017-02-15T11:43:00.451Z,35.94
2017-02-15T11:44:00.776Z,35.84
2017-02-15T11:45:00.812Z,35.94
2017-02-15T11:46:00.932Z,35.94
2017-02-15T11:47:00.435Z,35.84
2017-02-15T11:48:00.986Z,35.84
2017-02-15T11:49:00.910Z,35.45
2017-02-15T11:50:00.943Z,35.74
2017-02-15T11:51:00.970Z,36.03
2017-02-15T11:52:00.666Z,35.64
2017-02-15T11:53:00.835Z,35.74
2017-02-15T11:54:01.045Z,35.84
2017-02-15T11:55:01.073Z,35.74
2017-02-15T11:56:01.105Z,35.66
2017-02-15T11:57:01.155Z,35.57
2017-02-15T11:58:00.834Z,35.57
2017-02-15T11:59:00.788Z,36.05
2017-02-15T12:00:01.748Z,36.05
2017-02-15T12:01:01.293Z,36.05
2017-02-15T12:02:01.058Z,36.05
2017-02-15T12:03:01.555Z,35.37
2017-02-15T12:04:01.504Z,35.28
2017-02-15T12:05:00.965Z,35.28
2017-02-15T12:06:01.390Z,35.18
2017-02-15T12:07:01.418Z,34.99
2017-02-15T12:08:01.467Z,35.37
2017-02-15T12:09:01.071Z,34.89
2017-02-15T12:10:01.531Z,35.18
2017-02-15T12:11:01.535Z,34.7
2017-02-15T12:12:01.575Z,34.42
2017-02-15T12:13:01.240Z,34.23
2017-02-15T12:14:01.630Z,34.33
2017-02-15T12:15:01.253Z,34.42
2017-02-15T12:16:01.813Z,33.75
2017-02-15T12:17:01.938Z,33.86
2017-02-15T12:18:01.744Z,33.67
2017-02-15T12:19:01.369Z,33.57
2017-02-15T12:20:01.641Z,33.28
2017-02-15T12:21:01.819Z,32.7
2017-02-15T12:22:01.858Z,33.01
2017-02-15T12:23:01.474Z,32.81
2017-02-15T12:24:01.905Z,32.42
2017-02-15T12:25:02.189Z,32.42
2017-02-15T12:26:01.558Z,32.54
2017-02-15T12:27:01.671Z,32.15
2017-02-15T12:28:02.032Z,32.06
2017-02-15T12:29:02.116Z,32.15
2017-02-15T12:30:02.421Z,31.76
2017-02-15T12:31:01.720Z,31.28
2017-02-15T12:32:01.764Z,31.47
2017-02-15T12:33:02.446Z,31.09
2017-02-15T12:34:02.278Z,31.01
2017-02-15T12:35:02.488Z,31.1
2017-02-15T12:36:01.984Z,31.01
2017-02-15T12:37:02.293Z,30.71
2017-02-15T12:38:02.322Z,30.42
2017-02-15T12:39:02.543Z,30.42
2017-02-15T12:40:02.623Z,30.54
2017-02-15T12:41:02.004Z,30.44
2017-02-15T12:42:02.472Z,30.44
2017-02-15T12:43:02.474Z,30.63
2017-02-15T12:44:02.087Z,30.34
2017-02-15T12:45:02.782Z,30.34
2017-02-15T12:46:02.158Z,30.44
2017-02-15T12:47:03.019Z,30.05
2017-02-15T12:48:02.623Z,29.95
2017-02-15T12:49:02.890Z,29.57
2017-02-15T12:50:02.662Z,29.85
2017-02-15T12:51:02.307Z,29.66
2017-02-15T12:52:02.337Z,29.58
2017-02-15T12:53:02.464Z,29.68
2017-02-15T12:54:02.385Z,29.68
2017-02-15T12:55:03.074Z,29.38